sensor_id;sensor_type;location;lat;lon;timestamp;pressure;altitude;pressure_sealevel;temperature
14851;BMP180;7517;48.400;11.770;2023-03-25T00:00:35;95888.00;;;14.10
14851;BMP180;7517;48.400;11.770;2023-03-25T00:03:06;95897.00;;;14.10
14851;BMP180;7517;48.400;11.770;2023-03-25T00:05:33;95892.00;;;14.10
14851;BMP180;7517;48.400;11.770;2023-03-25T00:08:01;95889.00;;;14.10
14851;BMP180;7517;48.400;11.770;2023-03-25T00:10:28;95885.00;;;14.10
14851;BMP180;7517;48.400;11.770;2023-03-25T00:12:56;95871.00;;;14.00
14851;BMP180;7517;48.400;11.770;2023-03-25T00:15:29;95862.00;;;14.00
14851;BMP180;7517;48.400;11.770;2023-03-25T00:17:58;95867.00;;;14.00
14851;BMP180;7517;48.400;11.770;2023-03-25T00:20:28;95874.00;;;14.00
14851;BMP180;7517;48.400;11.770;2023-03-25T00:22:57;95875.00;;;14.00
14851;BMP180;7517;48.400;11.770;2023-03-25T00:25:24;95875.00;;;14.00
14851;BMP180;7517;48.400;11.770;2023-03-25T00:27:51;95877.00;;;13.90
14851;BMP180;7517;48.400;11.770;2023-03-25T00:30:19;95874.00;;;13.90
14851;BMP180;7517;48.400;11.770;2023-03-25T00:32:46;95875.00;;;13.90
14851;BMP180;7517;48.400;11.770;2023-03-25T00:35:15;95862.00;;;13.90
14851;BMP180;7517;48.400;11.770;2023-03-25T00:37:45;95881.00;;;13.90
14851;BMP180;7517;48.400;11.770;2023-03-25T00:40:25;95882.00;;;13.90
14851;BMP180;7517;48.400;11.770;2023-03-25T00:42:56;95876.00;;;13.90
14851;BMP180;7517;48.400;11.770;2023-03-25T00:45:23;95868.00;;;13.90
14851;BMP180;7517;48.400;11.770;2023-03-25T00:47:50;95883.00;;;13.90
14851;BMP180;7517;48.400;11.770;2023-03-25T00:50:18;95876.00;;;13.90
14851;BMP180;7517;48.400;11.770;2023-03-25T00:52:47;95880.00;;;13.90
14851;BMP180;7517;48.400;11.770;2023-03-25T00:55:16;95875.00;;;13.80
14851;BMP180;7517;48.400;11.770;2023-03-25T00:57:44;95875.00;;;13.80
14851;BMP180;7517;48.400;11.770;2023-03-25T01:00:16;95870.00;;;13.80
14851;BMP180;7517;48.400;11.770;2023-03-25T01:02:44;95881.00;;;13.80
14851;BMP180;7517;48.400;11.770;2023-03-25T01:05:12;95867.00;;;13.80
14851;BMP180;7517;48.400;11.770;2023-03-25T01:07:40;95869.00;;;13.80
14851;BMP180;7517;48.400;11.770;2023-03-25T01:10:10;95873.00;;;13.70
14851;BMP180;7517;48.400;11.770;2023-03-25T01:12:37;95861.00;;;13.70
14851;BMP180;7517;48.400;11.770;2023-03-25T01:15:08;95863.00;;;13.80
14851;BMP180;7517;48.400;11.770;2023-03-25T01:17:35;95862.00;;;13.80
14851;BMP180;7517;48.400;11.770;2023-03-25T01:20:03;95859.00;;;13.80
14851;BMP180;7517;48.400;11.770;2023-03-25T01:22:33;95855.00;;;13.80
14851;BMP180;7517;48.400;11.770;2023-03-25T01:25:01;95846.00;;;13.80
14851;BMP180;7517;48.400;11.770;2023-03-25T01:27:29;95844.00;;;13.80
14851;BMP180;7517;48.400;11.770;2023-03-25T01:29:57;95855.00;;;13.80
14851;BMP180;7517;48.400;11.770;2023-03-25T01:32:25;95850.00;;;13.90
14851;BMP180;7517;48.400;11.770;2023-03-25T01:34:52;95853.00;;;13.90
14851;BMP180;7517;48.400;11.770;2023-03-25T01:37:19;95847.00;;;13.90
14851;BMP180;7517;48.400;11.770;2023-03-25T01:39:47;95848.00;;;13.90
14851;BMP180;7517;48.400;11.770;2023-03-25T01:42:14;95845.00;;;13.90
14851;BMP180;7517;48.400;11.770;2023-03-25T01:45:24;95842.00;;;13.90
14851;BMP180;7517;48.400;11.770;2023-03-25T01:48:00;95834.00;;;14.00
14851;BMP180;7517;48.400;11.770;2023-03-25T01:50:30;95822.00;;;14.00
14851;BMP180;7517;48.400;11.770;2023-03-25T01:53:02;95816.00;;;14.00
14851;BMP180;7517;48.400;11.770;2023-03-25T01:55:33;95822.00;;;14.00
14851;BMP180;7517;48.400;11.770;2023-03-25T01:58:06;95821.00;;;14.00
14851;BMP180;7517;48.400;11.770;2023-03-25T02:00:38;95829.00;;;14.10
14851;BMP180;7517;48.400;11.770;2023-03-25T02:03:06;95824.00;;;14.00
14851;BMP180;7517;48.400;11.770;2023-03-25T02:05:43;95824.00;;;14.00
14851;BMP180;7517;48.400;11.770;2023-03-25T02:08:13;95814.00;;;14.00
14851;BMP180;7517;48.400;11.770;2023-03-25T02:10:44;95817.00;;;14.00
14851;BMP180;7517;48.400;11.770;2023-03-25T02:13:13;95813.00;;;14.00
14851;BMP180;7517;48.400;11.770;2023-03-25T02:16:02;95812.00;;;14.00
14851;BMP180;7517;48.400;11.770;2023-03-25T02:18:42;95812.00;;;14.00
14851;BMP180;7517;48.400;11.770;2023-03-25T02:28:22;95811.00;;;14.00
14851;BMP180;7517;48.400;11.770;2023-03-25T02:31:29;95815.00;;;14.00
14851;BMP180;7517;48.400;11.770;2023-03-25T02:34:37;95811.00;;;14.00
14851;BMP180;7517;48.400;11.770;2023-03-25T02:37:46;95802.00;;;14.10
14851;BMP180;7517;48.400;11.770;2023-03-25T02:40:19;95812.00;;;14.10
14851;BMP180;7517;48.400;11.770;2023-03-25T02:42:52;95808.00;;;14.10
14851;BMP180;7517;48.400;11.770;2023-03-25T02:45:28;95800.00;;;14.10
14851;BMP180;7517;48.400;11.770;2023-03-25T02:48:02;95791.00;;;14.10
14851;BMP180;7517;48.400;11.770;2023-03-25T02:50:37;95790.00;;;14.10
14851;BMP180;7517;48.400;11.770;2023-03-25T02:53:14;95797.00;;;14.00
14851;BMP180;7517;48.400;11.770;2023-03-25T02:55:45;95808.00;;;14.00
14851;BMP180;7517;48.400;11.770;2023-03-25T02:58:20;95812.00;;;14.00
14851;BMP180;7517;48.400;11.770;2023-03-25T03:00:49;95813.00;;;14.00
14851;BMP180;7517;48.400;11.770;2023-03-25T03:03:18;95807.00;;;14.00
14851;BMP180;7517;48.400;11.770;2023-03-25T03:05:50;95811.00;;;14.00
14851;BMP180;7517;48.400;11.770;2023-03-25T03:08:39;95815.00;;;14.00
14851;BMP180;7517;48.400;11.770;2023-03-25T03:11:22;95806.00;;;14.00
14851;BMP180;7517;48.400;11.770;2023-03-25T03:14:16;95815.00;;;13.90
14851;BMP180;7517;48.400;11.770;2023-03-25T03:16:57;95815.00;;;13.90
14851;BMP180;7517;48.400;11.770;2023-03-25T03:19:35;95803.00;;;13.90
14851;BMP180;7517;48.400;11.770;2023-03-25T03:22:26;95806.00;;;13.90
14851;BMP180;7517;48.400;11.770;2023-03-25T03:25:11;95814.00;;;13.90
14851;BMP180;7517;48.400;11.770;2023-03-25T03:27:46;95812.00;;;13.90
14851;BMP180;7517;48.400;11.770;2023-03-25T03:30:21;95798.00;;;13.90
14851;BMP180;7517;48.400;11.770;2023-03-25T03:32:55;95806.00;;;13.90
14851;BMP180;7517;48.400;11.770;2023-03-25T03:35:30;95810.00;;;13.90
14851;BMP180;7517;48.400;11.770;2023-03-25T03:38:03;95809.00;;;13.90
14851;BMP180;7517;48.400;11.770;2023-03-25T03:40:39;95815.00;;;13.90
14851;BMP180;7517;48.400;11.770;2023-03-25T03:43:14;95826.00;;;13.90
14851;BMP180;7517;48.400;11.770;2023-03-25T03:45:46;95830.00;;;13.90
14851;BMP180;7517;48.400;11.770;2023-03-25T03:48:19;95826.00;;;13.90
14851;BMP180;7517;48.400;11.770;2023-03-25T03:50:54;95830.00;;;13.90
14851;BMP180;7517;48.400;11.770;2023-03-25T03:53:28;95829.00;;;13.90
14851;BMP180;7517;48.400;11.770;2023-03-25T03:56:05;95825.00;;;14.00
14851;BMP180;7517;48.400;11.770;2023-03-25T03:58:38;95826.00;;;13.90
14851;BMP180;7517;48.400;11.770;2023-03-25T04:01:13;95824.00;;;13.90
14851;BMP180;7517;48.400;11.770;2023-03-25T04:03:48;95830.00;;;13.90
14851;BMP180;7517;48.400;11.770;2023-03-25T04:06:22;95829.00;;;13.80
14851;BMP180;7517;48.400;11.770;2023-03-25T04:08:56;95829.00;;;13.80
14851;BMP180;7517;48.400;11.770;2023-03-25T04:11:35;95828.00;;;13.70
14851;BMP180;7517;48.400;11.770;2023-03-25T04:14:06;95832.00;;;13.70
14851;BMP180;7517;48.400;11.770;2023-03-25T04:16:35;95837.00;;;13.60
14851;BMP180;7517;48.400;11.770;2023-03-25T04:19:03;95831.00;;;13.60
14851;BMP180;7517;48.400;11.770;2023-03-25T04:21:31;95831.00;;;13.60
14851;BMP180;7517;48.400;11.770;2023-03-25T04:23:59;95826.00;;;13.50
14851;BMP180;7517;48.400;11.770;2023-03-25T04:26:28;95840.00;;;13.50
14851;BMP180;7517;48.400;11.770;2023-03-25T04:28:58;95836.00;;;13.40
14851;BMP180;7517;48.400;11.770;2023-03-25T04:31:28;95835.00;;;13.40
14851;BMP180;7517;48.400;11.770;2023-03-25T04:33:56;95847.00;;;13.30
14851;BMP180;7517;48.400;11.770;2023-03-25T04:36:24;95854.00;;;13.30
14851;BMP180;7517;48.400;11.770;2023-03-25T04:38:54;95850.00;;;13.20
14851;BMP180;7517;48.400;11.770;2023-03-25T04:41:22;95846.00;;;13.20
14851;BMP180;7517;48.400;11.770;2023-03-25T04:43:52;95851.00;;;13.20
14851;BMP180;7517;48.400;11.770;2023-03-25T04:46:19;95852.00;;;13.20
14851;BMP180;7517;48.400;11.770;2023-03-25T04:48:47;95847.00;;;13.20
14851;BMP180;7517;48.400;11.770;2023-03-25T04:51:15;95849.00;;;13.20
14851;BMP180;7517;48.400;11.770;2023-03-25T04:53:43;95847.00;;;13.20
14851;BMP180;7517;48.400;11.770;2023-03-25T04:56:16;95849.00;;;13.20
14851;BMP180;7517;48.400;11.770;2023-03-25T04:58:45;95848.00;;;13.20
14851;BMP180;7517;48.400;11.770;2023-03-25T05:01:23;95853.00;;;13.20
14851;BMP180;7517;48.400;11.770;2023-03-25T05:03:57;95854.00;;;13.30
14851;BMP180;7517;48.400;11.770;2023-03-25T05:06:30;95847.00;;;13.30
14851;BMP180;7517;48.400;11.770;2023-03-25T05:08:59;95847.00;;;13.30
14851;BMP180;7517;48.400;11.770;2023-03-25T05:11:29;95837.00;;;13.30
14851;BMP180;7517;48.400;11.770;2023-03-25T05:13:59;95835.00;;;13.30
14851;BMP180;7517;48.400;11.770;2023-03-25T05:16:28;95841.00;;;13.40
14851;BMP180;7517;48.400;11.770;2023-03-25T05:18:55;95834.00;;;13.40
14851;BMP180;7517;48.400;11.770;2023-03-25T05:21:22;95833.00;;;13.40
14851;BMP180;7517;48.400;11.770;2023-03-25T05:23:49;95832.00;;;13.40
14851;BMP180;7517;48.400;11.770;2023-03-25T05:26:17;95835.00;;;13.30
14851;BMP180;7517;48.400;11.770;2023-03-25T05:28:45;95841.00;;;13.40
14851;BMP180;7517;48.400;11.770;2023-03-25T05:31:16;95849.00;;;13.40
14851;BMP180;7517;48.400;11.770;2023-03-25T05:33:44;95853.00;;;13.40
14851;BMP180;7517;48.400;11.770;2023-03-25T05:36:13;95858.00;;;13.40
14851;BMP180;7517;48.400;11.770;2023-03-25T05:38:41;95853.00;;;13.40
14851;BMP180;7517;48.400;11.770;2023-03-25T05:41:12;95857.00;;;13.40
14851;BMP180;7517;48.400;11.770;2023-03-25T05:43:41;95865.00;;;13.50
14851;BMP180;7517;48.400;11.770;2023-03-25T05:46:12;95868.00;;;13.50
14851;BMP180;7517;48.400;11.770;2023-03-25T05:48:40;95869.00;;;13.50
14851;BMP180;7517;48.400;11.770;2023-03-25T05:51:14;95855.00;;;13.50
14851;BMP180;7517;48.400;11.770;2023-03-25T05:53:42;95864.00;;;13.60
14851;BMP180;7517;48.400;11.770;2023-03-25T05:56:10;95871.00;;;13.60
14851;BMP180;7517;48.400;11.770;2023-03-25T05:58:37;95872.00;;;13.70
14851;BMP180;7517;48.400;11.770;2023-03-25T06:01:05;95877.00;;;13.70
14851;BMP180;7517;48.400;11.770;2023-03-25T06:03:33;95877.00;;;13.70
14851;BMP180;7517;48.400;11.770;2023-03-25T06:06:01;95877.00;;;13.70
14851;BMP180;7517;48.400;11.770;2023-03-25T06:08:32;95884.00;;;13.80
14851;BMP180;7517;48.400;11.770;2023-03-25T06:11:00;95891.00;;;13.80
14851;BMP180;7517;48.400;11.770;2023-03-25T06:13:29;95893.00;;;13.70
14851;BMP180;7517;48.400;11.770;2023-03-25T06:15:59;95895.00;;;13.70
14851;BMP180;7517;48.400;11.770;2023-03-25T06:18:29;95906.00;;;13.80
14851;BMP180;7517;48.400;11.770;2023-03-25T06:20:58;95904.00;;;13.80
14851;BMP180;7517;48.400;11.770;2023-03-25T06:23:26;95914.00;;;13.80
14851;BMP180;7517;48.400;11.770;2023-03-25T06:25:56;95915.00;;;13.90
14851;BMP180;7517;48.400;11.770;2023-03-25T06:28:23;95910.00;;;14.00
14851;BMP180;7517;48.400;11.770;2023-03-25T06:30:51;95918.00;;;14.00
14851;BMP180;7517;48.400;11.770;2023-03-25T06:33:18;95921.00;;;14.10
14851;BMP180;7517;48.400;11.770;2023-03-25T06:35:47;95927.00;;;14.10
14851;BMP180;7517;48.400;11.770;2023-03-25T06:38:19;95917.00;;;14.20
14851;BMP180;7517;48.400;11.770;2023-03-25T06:40:47;95917.00;;;14.20
14851;BMP180;7517;48.400;11.770;2023-03-25T06:43:16;95923.00;;;14.20
14851;BMP180;7517;48.400;11.770;2023-03-25T06:45:43;95926.00;;;14.30
14851;BMP180;7517;48.400;11.770;2023-03-25T06:48:11;95929.00;;;14.30
14851;BMP180;7517;48.400;11.770;2023-03-25T06:50:38;95917.00;;;14.20
14851;BMP180;7517;48.400;11.770;2023-03-25T06:53:05;95923.00;;;14.20
14851;BMP180;7517;48.400;11.770;2023-03-25T06:55:33;95924.00;;;14.20
14851;BMP180;7517;48.400;11.770;2023-03-25T06:58:00;95924.00;;;14.20
14851;BMP180;7517;48.400;11.770;2023-03-25T07:00:28;95924.00;;;14.20
14851;BMP180;7517;48.400;11.770;2023-03-25T07:02:56;95927.00;;;14.20
14851;BMP180;7517;48.400;11.770;2023-03-25T07:05:24;95947.00;;;14.20
14851;BMP180;7517;48.400;11.770;2023-03-25T07:07:52;95950.00;;;14.20
14851;BMP180;7517;48.400;11.770;2023-03-25T07:10:19;95949.00;;;14.20
14851;BMP180;7517;48.400;11.770;2023-03-25T07:12:47;95958.00;;;14.20
14851;BMP180;7517;48.400;11.770;2023-03-25T07:15:14;95960.00;;;14.20
14851;BMP180;7517;48.400;11.770;2023-03-25T07:17:43;95952.00;;;14.10
14851;BMP180;7517;48.400;11.770;2023-03-25T07:20:14;95970.00;;;14.10
14851;BMP180;7517;48.400;11.770;2023-03-25T07:22:42;95967.00;;;14.20
14851;BMP180;7517;48.400;11.770;2023-03-25T07:25:09;95982.00;;;14.20
14851;BMP180;7517;48.400;11.770;2023-03-25T07:27:36;95985.00;;;14.20
14851;BMP180;7517;48.400;11.770;2023-03-25T07:30:06;95980.00;;;14.20
14851;BMP180;7517;48.400;11.770;2023-03-25T07:32:33;95985.00;;;14.20
14851;BMP180;7517;48.400;11.770;2023-03-25T07:35:05;95996.00;;;14.20
14851;BMP180;7517;48.400;11.770;2023-03-25T07:37:34;95997.00;;;14.20
14851;BMP180;7517;48.400;11.770;2023-03-25T07:40:01;95996.00;;;14.20
14851;BMP180;7517;48.400;11.770;2023-03-25T07:42:30;96002.00;;;14.20
14851;BMP180;7517;48.400;11.770;2023-03-25T07:44:58;96004.00;;;14.30
14851;BMP180;7517;48.400;11.770;2023-03-25T07:47:25;95999.00;;;14.40
14851;BMP180;7517;48.400;11.770;2023-03-25T07:49:53;95995.00;;;14.50
14851;BMP180;7517;48.400;11.770;2023-03-25T07:52:22;95999.00;;;14.60
14851;BMP180;7517;48.400;11.770;2023-03-25T07:54:49;95994.00;;;14.70
14851;BMP180;7517;48.400;11.770;2023-03-25T07:57:16;96009.00;;;14.90
14851;BMP180;7517;48.400;11.770;2023-03-25T07:59:46;96012.00;;;15.00
14851;BMP180;7517;48.400;11.770;2023-03-25T08:02:14;96014.00;;;15.10
14851;BMP180;7517;48.400;11.770;2023-03-25T08:04:42;96016.00;;;15.10
14851;BMP180;7517;48.400;11.770;2023-03-25T08:07:09;96006.00;;;15.00
14851;BMP180;7517;48.400;11.770;2023-03-25T08:09:40;96012.00;;;15.00
14851;BMP180;7517;48.400;11.770;2023-03-25T08:12:08;96005.00;;;14.90
14851;BMP180;7517;48.400;11.770;2023-03-25T08:14:35;95999.00;;;14.90
14851;BMP180;7517;48.400;11.770;2023-03-25T08:17:04;96007.00;;;14.90
14851;BMP180;7517;48.400;11.770;2023-03-25T08:19:32;96012.00;;;15.00
14851;BMP180;7517;48.400;11.770;2023-03-25T08:22:02;96008.00;;;15.10
14851;BMP180;7517;48.400;11.770;2023-03-25T08:24:29;96007.00;;;15.20
14851;BMP180;7517;48.400;11.770;2023-03-25T08:26:59;96022.00;;;15.40
14851;BMP180;7517;48.400;11.770;2023-03-25T08:29:26;96016.00;;;15.50
14851;BMP180;7517;48.400;11.770;2023-03-25T08:31:59;96008.00;;;15.60
14851;BMP180;7517;48.400;11.770;2023-03-25T08:34:26;96004.00;;;15.70
14851;BMP180;7517;48.400;11.770;2023-03-25T08:36:54;96009.00;;;15.80
14851;BMP180;7517;48.400;11.770;2023-03-25T08:39:21;96001.00;;;15.90
14851;BMP180;7517;48.400;11.770;2023-03-25T08:41:55;96012.00;;;15.90
14851;BMP180;7517;48.400;11.770;2023-03-25T08:44:25;96010.00;;;15.90
14851;BMP180;7517;48.400;11.770;2023-03-25T08:46:52;96009.00;;;15.90
14851;BMP180;7517;48.400;11.770;2023-03-25T08:49:20;96001.00;;;16.00
14851;BMP180;7517;48.400;11.770;2023-03-25T08:51:47;96005.00;;;16.10
14851;BMP180;7517;48.400;11.770;2023-03-25T08:54:15;96008.00;;;16.10
14851;BMP180;7517;48.400;11.770;2023-03-25T08:56:42;95998.00;;;16.20
14851;BMP180;7517;48.400;11.770;2023-03-25T08:59:10;96004.00;;;16.20
14851;BMP180;7517;48.400;11.770;2023-03-25T09:01:39;95993.00;;;16.20
14851;BMP180;7517;48.400;11.770;2023-03-25T09:04:10;96009.00;;;16.20
14851;BMP180;7517;48.400;11.770;2023-03-25T09:06:37;96000.00;;;16.20
14851;BMP180;7517;48.400;11.770;2023-03-25T09:09:06;95992.00;;;16.10
14851;BMP180;7517;48.400;11.770;2023-03-25T09:11:34;95998.00;;;16.10
14851;BMP180;7517;48.400;11.770;2023-03-25T09:14:02;95989.00;;;16.10
14851;BMP180;7517;48.400;11.770;2023-03-25T09:16:30;95998.00;;;16.10
14851;BMP180;7517;48.400;11.770;2023-03-25T09:19:01;96003.00;;;16.10
14851;BMP180;7517;48.400;11.770;2023-03-25T09:21:29;95987.00;;;16.10
14851;BMP180;7517;48.400;11.770;2023-03-25T09:23:56;95991.00;;;16.10
14851;BMP180;7517;48.400;11.770;2023-03-25T09:26:23;95983.00;;;16.20
14851;BMP180;7517;48.400;11.770;2023-03-25T09:28:54;95981.00;;;16.30
14851;BMP180;7517;48.400;11.770;2023-03-25T09:31:21;95989.00;;;16.40
14851;BMP180;7517;48.400;11.770;2023-03-25T09:33:49;95992.00;;;16.50
14851;BMP180;7517;48.400;11.770;2023-03-25T09:36:18;95985.00;;;16.50
14851;BMP180;7517;48.400;11.770;2023-03-25T09:38:46;95981.00;;;16.60
14851;BMP180;7517;48.400;11.770;2023-03-25T09:41:44;95984.00;;;16.60
14851;BMP180;7517;48.400;11.770;2023-03-25T09:44:18;95980.00;;;16.60
14851;BMP180;7517;48.400;11.770;2023-03-25T09:46:47;95977.00;;;16.80
14851;BMP180;7517;48.400;11.770;2023-03-25T09:49:22;95977.00;;;17.10
14851;BMP180;7517;48.400;11.770;2023-03-25T09:51:53;95987.00;;;17.30
14851;BMP180;7517;48.400;11.770;2023-03-25T09:54:27;96010.00;;;17.40
14851;BMP180;7517;48.400;11.770;2023-03-25T09:57:03;95984.00;;;17.30
14851;BMP180;7517;48.400;11.770;2023-03-25T09:59:39;95979.00;;;17.30
14851;BMP180;7517;48.400;11.770;2023-03-25T10:02:26;95961.00;;;17.30
14851;BMP180;7517;48.400;11.770;2023-03-25T10:05:20;95964.00;;;17.40
14851;BMP180;7517;48.400;11.770;2023-03-25T10:08:05;95970.00;;;17.40
14851;BMP180;7517;48.400;11.770;2023-03-25T10:10:42;95975.00;;;17.30
14851;BMP180;7517;48.400;11.770;2023-03-25T10:13:20;95972.00;;;17.30
14851;BMP180;7517;48.400;11.770;2023-03-25T10:15:57;95967.00;;;17.30
14851;BMP180;7517;48.400;11.770;2023-03-25T10:18:52;95972.00;;;17.30
14851;BMP180;7517;48.400;11.770;2023-03-25T10:21:29;95961.00;;;17.30
14851;BMP180;7517;48.400;11.770;2023-03-25T10:24:12;95961.00;;;17.30
14851;BMP180;7517;48.400;11.770;2023-03-25T10:26:47;95965.00;;;17.20
14851;BMP180;7517;48.400;11.770;2023-03-25T10:29:24;95966.00;;;17.10
14851;BMP180;7517;48.400;11.770;2023-03-25T10:31:58;95973.00;;;17.00
14851;BMP180;7517;48.400;11.770;2023-03-25T10:34:36;95949.00;;;17.00
14851;BMP180;7517;48.400;11.770;2023-03-25T10:37:11;95954.00;;;17.00
14851;BMP180;7517;48.400;11.770;2023-03-25T10:39:42;95938.00;;;17.00
14851;BMP180;7517;48.400;11.770;2023-03-25T10:42:23;95941.00;;;17.10
14851;BMP180;7517;48.400;11.770;2023-03-25T10:44:53;95945.00;;;17.20
14851;BMP180;7517;48.400;11.770;2023-03-25T10:47:26;95942.00;;;17.30
14851;BMP180;7517;48.400;11.770;2023-03-25T10:49:56;95938.00;;;17.50
14851;BMP180;7517;48.400;11.770;2023-03-25T10:52:25;95934.00;;;17.50
14851;BMP180;7517;48.400;11.770;2023-03-25T10:55:02;95936.00;;;17.60
14851;BMP180;7517;48.400;11.770;2023-03-25T10:57:31;95945.00;;;17.60
14851;BMP180;7517;48.400;11.770;2023-03-25T11:00:05;95939.00;;;17.60
14851;BMP180;7517;48.400;11.770;2023-03-25T11:02:37;95936.00;;;17.50
14851;BMP180;7517;48.400;11.770;2023-03-25T11:05:07;95922.00;;;17.50
14851;BMP180;7517;48.400;11.770;2023-03-25T11:07:39;95917.00;;;17.50
14851;BMP180;7517;48.400;11.770;2023-03-25T11:10:19;95913.00;;;17.50
14851;BMP180;7517;48.400;11.770;2023-03-25T11:12:49;95916.00;;;17.50
14851;BMP180;7517;48.400;11.770;2023-03-25T11:15:21;95899.00;;;17.50
14851;BMP180;7517;48.400;11.770;2023-03-25T11:17:58;95894.00;;;17.50
14851;BMP180;7517;48.400;11.770;2023-03-25T11:20:30;95888.00;;;17.50
14851;BMP180;7517;48.400;11.770;2023-03-25T11:23:07;95887.00;;;17.50
14851;BMP180;7517;48.400;11.770;2023-03-25T11:25:40;95879.00;;;17.50
14851;BMP180;7517;48.400;11.770;2023-03-25T11:28:18;95869.00;;;17.60
14851;BMP180;7517;48.400;11.770;2023-03-25T11:31:13;95876.00;;;17.50
14851;BMP180;7517;48.400;11.770;2023-03-25T11:33:43;95879.00;;;17.50
14851;BMP180;7517;48.400;11.770;2023-03-25T11:36:26;95874.00;;;17.50
14851;BMP180;7517;48.400;11.770;2023-03-25T11:39:00;95867.00;;;17.60
14851;BMP180;7517;48.400;11.770;2023-03-25T11:41:34;95859.00;;;17.60
14851;BMP180;7517;48.400;11.770;2023-03-25T11:44:04;95872.00;;;17.60
14851;BMP180;7517;48.400;11.770;2023-03-25T11:46:32;95862.00;;;17.60
14851;BMP180;7517;48.400;11.770;2023-03-25T11:49:18;95855.00;;;17.60
14851;BMP180;7517;48.400;11.770;2023-03-25T11:51:46;95854.00;;;17.70
14851;BMP180;7517;48.400;11.770;2023-03-25T11:54:15;95856.00;;;17.70
14851;BMP180;7517;48.400;11.770;2023-03-25T11:56:50;95850.00;;;17.70
14851;BMP180;7517;48.400;11.770;2023-03-25T11:59:23;95843.00;;;17.70
14851;BMP180;7517;48.400;11.770;2023-03-25T12:02:00;95842.00;;;17.70
14851;BMP180;7517;48.400;11.770;2023-03-25T12:04:29;95837.00;;;17.70
14851;BMP180;7517;48.400;11.770;2023-03-25T12:07:00;95822.00;;;17.70
14851;BMP180;7517;48.400;11.770;2023-03-25T12:09:30;95840.00;;;17.70
14851;BMP180;7517;48.400;11.770;2023-03-25T12:12:29;95830.00;;;17.70
14851;BMP180;7517;48.400;11.770;2023-03-25T12:15:14;95828.00;;;17.70
14851;BMP180;7517;48.400;11.770;2023-03-25T12:18:01;95823.00;;;17.70
14851;BMP180;7517;48.400;11.770;2023-03-25T12:20:44;95825.00;;;17.70
14851;BMP180;7517;48.400;11.770;2023-03-25T12:23:26;95812.00;;;17.70
14851;BMP180;7517;48.400;11.770;2023-03-25T12:26:05;95829.00;;;17.70
14851;BMP180;7517;48.400;11.770;2023-03-25T12:29:18;95837.00;;;17.60
14851;BMP180;7517;48.400;11.770;2023-03-25T12:32:07;95803.00;;;17.60
14851;BMP180;7517;48.400;11.770;2023-03-25T12:34:53;95809.00;;;17.60
14851;BMP180;7517;48.400;11.770;2023-03-25T12:37:30;95806.00;;;17.60
14851;BMP180;7517;48.400;11.770;2023-03-25T12:40:28;95812.00;;;17.60
14851;BMP180;7517;48.400;11.770;2023-03-25T12:43:04;95801.00;;;17.70
14851;BMP180;7517;48.400;11.770;2023-03-25T12:45:52;95799.00;;;17.60
14851;BMP180;7517;48.400;11.770;2023-03-25T12:48:43;95817.00;;;17.60
14851;BMP180;7517;48.400;11.770;2023-03-25T12:51:32;95800.00;;;17.60
14851;BMP180;7517;48.400;11.770;2023-03-25T12:54:17;95822.00;;;17.50
14851;BMP180;7517;48.400;11.770;2023-03-25T12:56:52;95819.00;;;17.50
14851;BMP180;7517;48.400;11.770;2023-03-25T13:00:02;95826.00;;;17.40
14851;BMP180;7517;48.400;11.770;2023-03-25T13:06:09;95833.00;;;17.30
14851;BMP180;7517;48.400;11.770;2023-03-25T13:08:45;95822.00;;;17.20
14851;BMP180;7517;48.400;11.770;2023-03-25T13:11:20;95819.00;;;17.20
14851;BMP180;7517;48.400;11.770;2023-03-25T13:13:52;95817.00;;;17.10
14851;BMP180;7517;48.400;11.770;2023-03-25T13:16:26;95820.00;;;17.10
14851;BMP180;7517;48.400;11.770;2023-03-25T13:19:02;95790.00;;;17.00
14851;BMP180;7517;48.400;11.770;2023-03-25T13:21:37;95787.00;;;17.00
14851;BMP180;7517;48.400;11.770;2023-03-25T13:24:13;95799.00;;;17.00
14851;BMP180;7517;48.400;11.770;2023-03-25T13:26:45;95782.00;;;17.00
14851;BMP180;7517;48.400;11.770;2023-03-25T13:29:25;95787.00;;;17.00
14851;BMP180;7517;48.400;11.770;2023-03-25T13:31:58;95785.00;;;17.00
14851;BMP180;7517;48.400;11.770;2023-03-25T13:34:31;95785.00;;;17.00
14851;BMP180;7517;48.400;11.770;2023-03-25T13:37:13;95795.00;;;17.10
14851;BMP180;7517;48.400;11.770;2023-03-25T13:40:09;95801.00;;;17.10
14851;BMP180;7517;48.400;11.770;2023-03-25T13:42:47;95799.00;;;17.10
14851;BMP180;7517;48.400;11.770;2023-03-25T13:45:19;95799.00;;;17.10
14851;BMP180;7517;48.400;11.770;2023-03-25T13:47:53;95797.00;;;17.10
14851;BMP180;7517;48.400;11.770;2023-03-25T13:50:27;95815.00;;;17.10
14851;BMP180;7517;48.400;11.770;2023-03-25T13:53:03;95792.00;;;17.10
14851;BMP180;7517;48.400;11.770;2023-03-25T13:55:36;95793.00;;;17.10
14851;BMP180;7517;48.400;11.770;2023-03-25T13:58:52;95774.00;;;17.10
14851;BMP180;7517;48.400;11.770;2023-03-25T14:01:44;95797.00;;;17.10
14851;BMP180;7517;48.400;11.770;2023-03-25T14:04:40;95793.00;;;17.10
14851;BMP180;7517;48.400;11.770;2023-03-25T14:10:51;95806.00;;;17.20
14851;BMP180;7517;48.400;11.770;2023-03-25T14:13:25;95799.00;;;17.20
14851;BMP180;7517;48.400;11.770;2023-03-25T14:16:00;95793.00;;;17.30
14851;BMP180;7517;48.400;11.770;2023-03-25T14:18:29;95793.00;;;17.30
14851;BMP180;7517;48.400;11.770;2023-03-25T14:21:21;95795.00;;;17.40
14851;BMP180;7517;48.400;11.770;2023-03-25T14:23:45;95770.00;;;17.40
14851;BMP180;7517;48.400;11.770;2023-03-25T14:26:17;95796.00;;;17.40
14851;BMP180;7517;48.400;11.770;2023-03-25T14:28:45;95783.00;;;17.40
14851;BMP180;7517;48.400;11.770;2023-03-25T14:31:28;95797.00;;;17.50
14851;BMP180;7517;48.400;11.770;2023-03-25T14:34:22;95790.00;;;17.50
14851;BMP180;7517;48.400;11.770;2023-03-25T14:37:16;95821.00;;;17.50
14851;BMP180;7517;48.400;11.770;2023-03-25T14:39:44;95789.00;;;17.40
14851;BMP180;7517;48.400;11.770;2023-03-25T14:42:40;95805.00;;;17.30
14851;BMP180;7517;48.400;11.770;2023-03-25T14:45:50;95798.00;;;17.30
14851;BMP180;7517;48.400;11.770;2023-03-25T14:48:34;95789.00;;;17.20
14851;BMP180;7517;48.400;11.770;2023-03-25T14:51:41;95793.00;;;17.10
14851;BMP180;7517;48.400;11.770;2023-03-25T14:54:22;95796.00;;;17.10
14851;BMP180;7517;48.400;11.770;2023-03-25T14:57:00;95796.00;;;17.10
14851;BMP180;7517;48.400;11.770;2023-03-25T14:59:38;95802.00;;;17.00